createdAt,value
2023-01-13T05:56:17.378Z,8.20
2023-01-13T13:13:18.163Z,10.10
2023-01-13T13:15:51.501Z,10.10
2023-01-13T13:18:27.245Z,9.10
2023-01-13T13:21:03.991Z,9.80
2023-01-13T13:23:37.977Z,9.00
2023-01-13T13:26:28.727Z,10.40
2023-01-13T13:29:22.696Z,11.30
2023-01-13T13:31:59.866Z,11.30
2023-01-13T13:34:40.822Z,12.10
2023-01-13T14:18:05.615Z,12.10
2023-01-13T16:31:29.677Z,7.00
2023-01-13T16:38:57.229Z,6.90
2023-01-13T16:41:25.959Z,6.80
2023-01-13T16:43:54.833Z,6.90
2023-01-13T16:46:29.131Z,6.90
2023-01-13T16:49:00.007Z,6.90
2023-01-13T16:51:28.634Z,6.90
2023-01-13T16:53:57.247Z,6.90
2023-01-13T16:56:28.573Z,6.80
2023-01-13T16:58:59.724Z,6.90
2023-01-13T17:01:31.140Z,6.90
2023-01-13T17:04:00.406Z,7.00
2023-01-13T17:06:31.826Z,7.10
2023-01-13T17:09:05.596Z,7.10
2023-01-13T17:11:34.656Z,7.00
2023-01-13T17:14:18.100Z,7.00
2023-01-13T17:16:33.407Z,7.10
2023-01-13T17:19:01.952Z,7.10
2023-01-13T17:21:30.874Z,7.10
2023-01-13T17:23:59.389Z,7.10
2023-01-13T17:26:35.499Z,7.10
2023-01-13T17:29:06.753Z,7.10
2023-01-13T17:31:36.594Z,7.10
2023-01-13T17:34:05.992Z,7.10
2023-01-13T17:36:34.879Z,7.00
2023-01-13T17:39:03.405Z,7.10
2023-01-13T17:41:31.889Z,7.10
2023-01-13T17:44:00.415Z,6.90
2023-01-13T17:46:28.936Z,6.80
2023-01-13T17:48:57.434Z,6.90
2023-01-13T17:51:26.017Z,6.90
2023-01-13T17:53:54.898Z,7.00
2023-01-13T17:56:25.075Z,7.00
2023-01-13T17:58:53.611Z,7.00
2023-01-13T18:01:23.653Z,7.00
2023-01-13T18:03:52.396Z,7.00
2023-01-13T18:06:23.832Z,7.00
2023-01-13T18:08:53.059Z,7.00
2023-01-13T18:11:23.328Z,7.00
2023-01-13T18:14:00.264Z,7.00
2023-01-13T18:16:30.700Z,7.00
2023-01-13T18:19:01.486Z,7.00
2023-01-13T18:29:54.666Z,6.70
2023-01-13T18:32:26.538Z,6.60
2023-01-13T18:35:05.054Z,6.60
2023-01-13T18:37:25.635Z,6.60
2023-01-13T18:39:54.572Z,6.70
2023-01-13T18:42:40.825Z,6.60
2023-01-13T18:47:40.965Z,6.70
2023-01-13T18:50:12.034Z,6.60
2023-01-13T18:52:41.506Z,6.60
2023-01-13T19:00:14.640Z,6.60
2023-01-13T19:07:43.192Z,6.70
2023-01-13T19:10:14.166Z,6.80
2023-01-13T19:12:43.687Z,7.00
2023-01-13T19:20:11.919Z,7.80
2023-01-13T19:22:40.417Z,7.00
2023-01-13T19:25:09.043Z,7.00
2023-01-13T19:27:38.722Z,6.90
2023-01-13T19:30:09.301Z,7.00
2023-01-13T19:32:38.168Z,7.00
2023-01-13T19:35:07.120Z,7.00
2023-01-13T19:37:36.672Z,6.90
2023-01-13T19:40:07.262Z,7.00
2023-01-13T19:42:53.801Z,7.00
2023-01-13T19:47:57.776Z,6.90
2023-01-13T19:50:26.811Z,7.00
2023-01-13T19:52:55.405Z,6.80
2023-01-13T19:55:24.148Z,7.00
2023-01-13T20:00:21.778Z,7.00
2023-01-13T20:02:52.838Z,6.90
2023-01-13T20:05:24.976Z,7.00
2023-01-13T21:02:46.752Z,6.80
2023-01-13T21:05:16.620Z,8.10
